createdAt,value
2023-03-26T00:00:27.249Z,364
2023-03-26T00:01:26.801Z,359
2023-03-26T00:02:27.218Z,361
2023-03-26T00:03:25.292Z,360
2023-03-26T00:04:25.969Z,363
2023-03-26T00:05:25.128Z,362
2023-03-26T00:06:25.826Z,360
2023-03-26T00:07:24.939Z,357
2023-03-26T00:08:24.639Z,359
2023-03-26T00:09:26.349Z,362
2023-03-26T00:10:25.831Z,374
2023-03-26T00:11:24.249Z,359
2023-03-26T00:12:25.944Z,345
2023-03-26T00:13:26.170Z,346
2023-03-26T00:14:25.082Z,340
2023-03-26T00:15:26.034Z,345
2023-03-26T00:16:24.748Z,347
2023-03-26T00:17:24.955Z,352
2023-03-26T00:18:26.899Z,357
2023-03-26T00:19:25.490Z,352
2023-03-26T00:20:25.088Z,350
2023-03-26T00:21:24.828Z,361
2023-03-26T00:22:24.714Z,365
2023-03-26T00:23:25.954Z,358
2023-03-26T00:24:26.045Z,352
2023-03-26T00:25:24.459Z,349
2023-03-26T00:26:25.250Z,354
2023-03-26T00:27:25.220Z,356
2023-03-26T00:28:47.083Z,359
2023-03-26T00:30:26.099Z,367
2023-03-26T00:32:24.930Z,368
2023-03-26T00:33:25.074Z,362
2023-03-26T00:34:26.157Z,357
2023-03-26T00:35:26.290Z,361
2023-03-26T00:37:32.559Z,350
2023-03-26T00:38:26.474Z,353
2023-03-26T00:39:26.090Z,360
2023-03-26T00:40:25.444Z,359
2023-03-26T00:41:25.075Z,360
2023-03-26T00:42:25.345Z,361
2023-03-26T00:43:24.937Z,355
2023-03-26T00:44:24.733Z,368
2023-03-26T00:45:25.009Z,362
2023-03-26T00:46:25.485Z,353
2023-03-26T00:47:25.031Z,364
2023-03-26T00:48:37.854Z,369
2023-03-26T00:49:23.816Z,366
2023-03-26T00:50:26.005Z,354
2023-03-26T00:51:25.829Z,348
2023-03-26T00:52:26.400Z,340
2023-03-26T00:53:25.742Z,360
2023-03-26T00:54:25.643Z,361
2023-03-26T00:55:26.376Z,362
2023-03-26T00:56:25.923Z,365
2023-03-26T00:57:34.969Z,367
2023-03-26T00:58:25.584Z,369
2023-03-26T00:59:25.951Z,358
2023-03-26T01:00:31.257Z,360
2023-03-26T01:01:25.220Z,358
2023-03-26T01:02:25.948Z,366
2023-03-26T01:03:28.034Z,371
2023-03-26T01:04:25.030Z,370
2023-03-26T01:05:25.448Z,367
2023-03-26T01:06:25.491Z,362
2023-03-26T01:07:26.216Z,361
2023-03-26T01:08:25.664Z,365
2023-03-26T01:09:25.438Z,354
2023-03-26T01:10:25.604Z,349
2023-03-26T01:11:25.177Z,357
2023-03-26T01:12:24.144Z,359
2023-03-26T01:13:25.507Z,356
2023-03-26T01:14:25.341Z,362
2023-03-26T01:15:26.565Z,359
2023-03-26T01:16:25.403Z,363
2023-03-26T01:17:26.862Z,369
2023-03-26T01:18:26.467Z,364
2023-03-26T01:19:26.014Z,360
2023-03-26T01:20:25.470Z,364
2023-03-26T01:21:24.883Z,368
2023-03-26T01:22:25.296Z,369
2023-03-26T01:23:25.337Z,357
2023-03-26T01:24:26.321Z,358
2023-03-26T01:25:26.485Z,356
2023-03-26T01:26:25.232Z,355
2023-03-26T01:28:26.421Z,358
2023-03-26T01:29:27.049Z,360
2023-03-26T01:30:25.060Z,366
2023-03-26T01:31:25.241Z,370
2023-03-26T01:32:25.802Z,359
2023-03-26T01:33:24.869Z,370
2023-03-26T01:34:25.019Z,371
2023-03-26T01:35:24.308Z,367
2023-03-26T01:36:25.536Z,362
2023-03-26T01:37:26.069Z,359
2023-03-26T01:38:25.066Z,365
2023-03-26T01:39:26.763Z,361
2023-03-26T01:40:24.583Z,369
2023-03-26T01:41:25.882Z,363
2023-03-26T01:42:26.381Z,352
2023-03-26T01:43:26.273Z,354
2023-03-26T01:44:26.019Z,361
2023-03-26T01:45:26.858Z,358
2023-03-26T01:46:25.592Z,356
2023-03-26T01:47:25.731Z,362
2023-03-26T01:48:25.390Z,366
2023-03-26T01:49:25.865Z,367
2023-03-26T01:50:25.532Z,362
2023-03-26T01:51:26.316Z,352
2023-03-26T01:52:27.018Z,351
2023-03-26T01:53:25.487Z,364
2023-03-26T01:54:25.017Z,369
2023-03-26T01:55:25.468Z,376
2023-03-26T01:56:25.324Z,366
2023-03-26T01:57:25.822Z,365
2023-03-26T01:58:25.481Z,358
2023-03-26T01:59:26.043Z,354
2023-03-26T02:00:26.883Z,361
2023-03-26T02:01:26.030Z,368
2023-03-26T02:02:26.368Z,369
2023-03-26T02:03:29.895Z,373
2023-03-26T02:04:24.796Z,373
2023-03-26T02:05:25.852Z,373
2023-03-26T02:06:24.902Z,370
2023-03-26T02:07:26.000Z,357
2023-03-26T02:08:24.983Z,354
2023-03-26T02:09:25.539Z,351
2023-03-26T02:10:25.264Z,360
2023-03-26T02:11:34.746Z,363
2023-03-26T02:12:25.034Z,362
2023-03-26T02:13:25.596Z,360
2023-03-26T02:14:25.360Z,355
2023-03-26T02:15:25.534Z,357
2023-03-26T02:16:23.664Z,350
2023-03-26T02:17:24.888Z,353
2023-03-26T02:18:25.502Z,362
2023-03-26T02:19:25.221Z,371
2023-03-26T02:20:24.542Z,356
2023-03-26T02:21:25.345Z,362
2023-03-26T02:22:24.076Z,359
2023-03-26T02:23:25.905Z,364
2023-03-26T02:24:25.563Z,360
2023-03-26T02:25:25.734Z,369
2023-03-26T02:26:25.289Z,368
2023-03-26T02:27:25.739Z,364
2023-03-26T02:28:25.968Z,363
2023-03-26T02:29:25.924Z,370
2023-03-26T02:30:26.264Z,362
2023-03-26T02:31:25.725Z,355
2023-03-26T02:32:28.769Z,357
2023-03-26T02:33:25.116Z,368
2023-03-26T02:34:25.711Z,369
2023-03-26T02:35:26.290Z,373
2023-03-26T02:36:25.546Z,367
2023-03-26T02:37:26.292Z,360
2023-03-26T02:38:26.323Z,359
2023-03-26T02:39:26.466Z,359
2023-03-26T02:40:26.964Z,357
2023-03-26T02:41:25.899Z,365
2023-03-26T02:42:26.288Z,367
2023-03-26T02:43:24.886Z,362
2023-03-26T02:44:25.822Z,360
2023-03-26T02:45:26.161Z,363
2023-03-26T02:46:25.516Z,356
2023-03-26T02:47:25.667Z,353
2023-03-26T02:48:24.800Z,364
2023-03-26T02:49:25.182Z,366
2023-03-26T02:50:25.041Z,363
2023-03-26T02:51:24.321Z,366
2023-03-26T02:52:25.020Z,367
2023-03-26T02:53:24.763Z,373
2023-03-26T02:54:26.486Z,380
2023-03-26T02:55:25.699Z,367
2023-03-26T02:56:25.537Z,367
2023-03-26T02:57:25.726Z,372
2023-03-26T02:58:26.411Z,367
2023-03-26T02:59:26.040Z,369
2023-03-26T03:00:26.924Z,369
2023-03-26T03:01:25.727Z,369
2023-03-26T03:02:26.003Z,369
2023-03-26T03:03:25.897Z,369
2023-03-26T03:04:25.715Z,369
2023-03-26T03:05:24.508Z,369
2023-03-26T03:06:25.841Z,369
2023-03-26T03:07:25.334Z,369
2023-03-26T03:08:24.413Z,369
2023-03-26T03:09:24.947Z,369
2023-03-26T03:10:24.494Z,369
2023-03-26T03:11:25.210Z,369
2023-03-26T03:12:25.622Z,369
2023-03-26T03:13:25.013Z,369
2023-03-26T03:14:25.501Z,369
2023-03-26T03:15:25.400Z,369
2023-03-26T03:16:24.164Z,369
2023-03-26T03:17:25.441Z,369
2023-03-26T03:18:24.989Z,369
2023-03-26T03:19:26.509Z,369
2023-03-26T03:20:25.594Z,369
2023-03-26T03:21:26.068Z,369
2023-03-26T03:22:25.413Z,369
2023-03-26T03:23:25.865Z,369
2023-03-26T03:24:25.859Z,369
2023-03-26T03:25:25.614Z,369
2023-03-26T03:26:25.775Z,369
2023-03-26T03:27:25.576Z,369
2023-03-26T03:28:26.068Z,369
2023-03-26T03:29:26.585Z,369
2023-03-26T03:30:25.206Z,369
2023-03-26T03:31:26.352Z,369
2023-03-26T03:32:25.113Z,369
2023-03-26T03:33:25.457Z,369
2023-03-26T03:34:24.832Z,369
2023-03-26T03:35:25.395Z,369
2023-03-26T03:36:25.701Z,369
2023-03-26T03:37:23.934Z,369
2023-03-26T03:38:25.411Z,369
2023-03-26T03:39:24.666Z,369
2023-03-26T03:40:25.125Z,369
2023-03-26T03:41:24.587Z,369
2023-03-26T03:42:25.669Z,369
2023-03-26T03:43:23.874Z,369
2023-03-26T03:44:26.130Z,369
2023-03-26T03:45:24.816Z,369
2023-03-26T03:46:24.321Z,369
2023-03-26T03:47:24.877Z,369
2023-03-26T03:48:24.582Z,369
2023-03-26T03:49:25.064Z,369
2023-03-26T03:50:25.186Z,369
2023-03-26T03:51:24.837Z,369
2023-03-26T03:52:25.922Z,369
2023-03-26T03:53:24.565Z,369
2023-03-26T03:54:26.072Z,369
2023-03-26T03:55:25.397Z,369
2023-03-26T03:56:25.231Z,369
2023-03-26T03:57:25.806Z,369
2023-03-26T03:58:26.133Z,369
2023-03-26T03:59:25.802Z,369
2023-03-26T04:00:26.690Z,369
2023-03-26T04:01:23.822Z,361
2023-03-26T04:03:33.364Z,352
2023-03-26T04:04:27.045Z,353
2023-03-26T04:05:24.574Z,358
2023-03-26T04:06:25.274Z,364
2023-03-26T04:07:26.490Z,366
2023-03-26T04:08:26.241Z,375
2023-03-26T04:09:27.790Z,370
2023-03-26T04:10:26.715Z,375
2023-03-26T04:11:26.254Z,366
2023-03-26T04:12:26.252Z,365
2023-03-26T04:14:25.372Z,379
2023-03-26T04:15:24.762Z,377
2023-03-26T04:16:25.324Z,360
2023-03-26T04:17:26.482Z,362
2023-03-26T04:18:25.292Z,366
2023-03-26T04:19:26.098Z,373
2023-03-26T04:20:26.134Z,359
2023-03-26T04:21:26.139Z,356
2023-03-26T04:22:25.623Z,358
2023-03-26T04:23:24.892Z,373
2023-03-26T04:25:25.735Z,369
2023-03-26T04:26:24.455Z,360
2023-03-26T04:27:24.875Z,370
2023-03-26T04:28:25.154Z,372
2023-03-26T04:29:26.256Z,367
2023-03-26T04:30:27.107Z,360
2023-03-26T04:31:25.749Z,363
2023-03-26T04:32:30.925Z,361
2023-03-26T04:33:24.075Z,368
2023-03-26T04:34:25.528Z,371
2023-03-26T04:35:25.257Z,355
2023-03-26T04:36:30.293Z,352
2023-03-26T04:37:24.895Z,356
2023-03-26T04:38:24.393Z,361
2023-03-26T04:39:25.021Z,363
2023-03-26T04:40:24.698Z,361
2023-03-26T04:41:25.781Z,357
2023-03-26T04:42:27.469Z,364
2023-03-26T04:43:25.286Z,359
2023-03-26T04:44:25.426Z,369
2023-03-26T04:45:25.772Z,367
2023-03-26T04:46:26.555Z,362
2023-03-26T04:47:25.950Z,363
2023-03-26T04:48:25.544Z,367
2023-03-26T04:49:26.940Z,366
2023-03-26T04:50:25.020Z,365
2023-03-26T04:51:24.625Z,369
2023-03-26T04:52:24.185Z,366
2023-03-26T04:53:25.372Z,362
2023-03-26T04:54:26.332Z,363
2023-03-26T04:55:25.836Z,368
2023-03-26T04:56:39.137Z,372
2023-03-26T04:58:38.850Z,375
2023-03-26T04:59:27.043Z,372
2023-03-26T05:00:26.811Z,370
2023-03-26T05:01:26.309Z,372
2023-03-26T05:03:26.629Z,369
2023-03-26T05:04:25.469Z,380
2023-03-26T05:05:25.846Z,369
2023-03-26T05:06:25.439Z,366
2023-03-26T05:07:25.895Z,362
2023-03-26T05:08:27.301Z,361
2023-03-26T05:09:25.841Z,358
2023-03-26T05:10:46.049Z,375
2023-03-26T05:11:24.523Z,384
2023-03-26T05:12:24.922Z,385
2023-03-26T05:13:24.491Z,372
2023-03-26T05:14:26.325Z,374
2023-03-26T05:15:26.533Z,380
2023-03-26T05:16:24.819Z,387
2023-03-26T05:17:24.291Z,386
2023-03-26T05:18:24.872Z,382
2023-03-26T05:19:24.195Z,380
2023-03-26T05:20:25.578Z,375
2023-03-26T05:21:25.973Z,362
2023-03-26T05:22:25.089Z,364
2023-03-26T05:23:25.130Z,361
2023-03-26T05:24:27.224Z,368
2023-03-26T05:25:26.038Z,367
2023-03-26T05:26:25.359Z,370
2023-03-26T05:27:26.666Z,376
2023-03-26T05:28:25.750Z,365
2023-03-26T05:29:26.552Z,364
2023-03-26T05:30:26.787Z,358
2023-03-26T05:31:25.768Z,371
2023-03-26T05:32:26.529Z,370
2023-03-26T05:33:25.140Z,369
2023-03-26T05:34:26.126Z,368
2023-03-26T05:35:27.061Z,378
2023-03-26T05:36:25.807Z,377
2023-03-26T05:37:26.020Z,379
2023-03-26T05:38:26.793Z,372
2023-03-26T05:41:25.579Z,374
2023-03-26T05:42:26.888Z,375
2023-03-26T05:44:27.341Z,371
2023-03-26T05:45:25.124Z,374
2023-03-26T05:47:25.780Z,365
2023-03-26T05:48:27.061Z,363
2023-03-26T05:49:26.200Z,368
2023-03-26T05:50:26.573Z,369
2023-03-26T05:51:26.360Z,371
2023-03-26T05:52:25.884Z,368
2023-03-26T05:53:26.105Z,367
2023-03-26T05:55:27.386Z,360
2023-03-26T05:56:26.350Z,367
2023-03-26T05:58:26.554Z,365
2023-03-26T05:59:27.117Z,362
2023-03-26T06:00:25.934Z,372
2023-03-26T06:01:25.651Z,375
2023-03-26T06:02:26.118Z,364
2023-03-26T06:03:25.491Z,371
2023-03-26T06:05:27.542Z,365
2023-03-26T06:06:25.851Z,364
2023-03-26T06:07:25.706Z,368
2023-03-26T06:09:26.490Z,364
2023-03-26T06:10:26.569Z,366
2023-03-26T06:11:25.039Z,365
2023-03-26T06:12:25.185Z,358
2023-03-26T06:15:26.245Z,367
2023-03-26T06:16:27.292Z,382
2023-03-26T06:17:27.052Z,373
2023-03-26T06:18:26.023Z,374
2023-03-26T06:19:25.356Z,365
2023-03-26T06:20:25.342Z,371
2023-03-26T06:21:24.850Z,372
2023-03-26T06:22:24.231Z,360
2023-03-26T06:23:25.897Z,356
2023-03-26T06:25:26.561Z,360
2023-03-26T06:26:25.904Z,358
2023-03-26T06:27:25.427Z,363
2023-03-26T06:28:25.268Z,365
2023-03-26T06:29:26.090Z,372
2023-03-26T06:30:26.995Z,365
2023-03-26T06:31:25.732Z,370
2023-03-26T06:32:25.851Z,362
2023-03-26T06:33:26.139Z,365
2023-03-26T06:34:26.043Z,370
2023-03-26T06:35:25.313Z,365
2023-03-26T06:36:24.930Z,361
2023-03-26T06:37:25.779Z,371
2023-03-26T06:38:25.594Z,364
2023-03-26T06:39:25.908Z,365
2023-03-26T06:40:25.827Z,366
2023-03-26T06:41:26.422Z,371
2023-03-26T06:43:06.699Z,367
2023-03-26T06:43:33.008Z,369
2023-03-26T06:44:25.784Z,362
2023-03-26T06:45:25.642Z,359
2023-03-26T06:46:25.187Z,360
2023-03-26T06:47:25.499Z,362
2023-03-26T06:48:26.551Z,369
2023-03-26T06:49:28.774Z,370
2023-03-26T06:50:26.119Z,385
2023-03-26T06:51:22.905Z,384
2023-03-26T06:53:25.185Z,374
2023-03-26T06:54:25.547Z,365
2023-03-26T06:55:25.104Z,370
2023-03-26T06:57:24.924Z,364
2023-03-26T06:58:25.737Z,362
2023-03-26T07:00:28.040Z,361
2023-03-26T07:01:27.476Z,369
2023-03-26T07:02:25.881Z,360
2023-03-26T07:03:25.390Z,359
2023-03-26T07:04:26.918Z,358
2023-03-26T07:05:26.975Z,367
2023-03-26T07:06:26.091Z,363
2023-03-26T07:07:33.978Z,367
2023-03-26T07:08:26.540Z,372
2023-03-26T07:09:26.589Z,375
2023-03-26T07:10:25.164Z,377
2023-03-26T07:11:33.491Z,381
2023-03-26T07:12:25.713Z,379
2023-03-26T07:13:24.653Z,375
2023-03-26T07:14:24.727Z,376
2023-03-26T07:15:25.068Z,366
2023-03-26T07:16:26.711Z,376
2023-03-26T07:17:26.094Z,371
2023-03-26T07:18:25.918Z,373
2023-03-26T07:19:26.300Z,369
2023-03-26T07:20:24.424Z,366
2023-03-26T07:21:25.172Z,377
2023-03-26T07:22:25.917Z,363
2023-03-26T07:23:26.200Z,376
2023-03-26T07:24:26.050Z,374
2023-03-26T07:25:25.995Z,366
2023-03-26T07:26:25.532Z,359
2023-03-26T07:27:26.551Z,365
2023-03-26T07:28:27.002Z,360
2023-03-26T07:29:41.334Z,363
2023-03-26T07:30:26.691Z,358
2023-03-26T07:31:26.768Z,364
2023-03-26T07:32:25.268Z,373
2023-03-26T07:33:26.677Z,375
2023-03-26T07:34:25.525Z,368
2023-03-26T07:35:26.402Z,364
2023-03-26T07:36:25.790Z,362
2023-03-26T07:37:24.958Z,366
2023-03-26T07:39:28.044Z,377
2023-03-26T07:40:27.202Z,379
2023-03-26T07:41:25.998Z,366
2023-03-26T07:42:25.165Z,357
2023-03-26T07:43:26.524Z,347
2023-03-26T07:44:25.784Z,349
2023-03-26T07:45:26.111Z,354
2023-03-26T07:46:27.336Z,359
2023-03-26T07:48:25.931Z,358
2023-03-26T07:49:26.663Z,368
2023-03-26T07:50:26.432Z,367
2023-03-26T07:51:25.851Z,355
2023-03-26T07:52:26.184Z,351
2023-03-26T07:53:25.491Z,361
2023-03-26T07:54:26.175Z,367
2023-03-26T07:55:27.208Z,374
2023-03-26T07:56:27.028Z,367
2023-03-26T07:57:26.235Z,355
2023-03-26T07:58:27.157Z,361
2023-03-26T08:00:26.240Z,368
2023-03-26T08:01:27.372Z,365
2023-03-26T08:04:34.478Z,379
2023-03-26T08:05:26.647Z,372
2023-03-26T08:06:26.141Z,370
2023-03-26T08:07:27.042Z,366
2023-03-26T08:08:26.669Z,368
2023-03-26T08:10:31.020Z,344
2023-03-26T08:11:24.695Z,358
2023-03-26T08:12:26.341Z,365
2023-03-26T08:13:26.608Z,359
2023-03-26T08:14:25.734Z,355
2023-03-26T08:15:26.068Z,363
2023-03-26T08:16:26.481Z,375
2023-03-26T08:17:25.874Z,385
2023-03-26T08:18:25.730Z,382
2023-03-26T08:19:26.066Z,378
2023-03-26T08:20:26.335Z,375
2023-03-26T08:21:24.927Z,374
2023-03-26T08:22:25.567Z,359
2023-03-26T08:23:25.995Z,360
2023-03-26T08:24:25.447Z,356
2023-03-26T08:25:24.812Z,358
2023-03-26T08:26:25.791Z,365
2023-03-26T08:27:25.812Z,360
2023-03-26T08:28:25.674Z,351
2023-03-26T08:29:25.286Z,353
2023-03-26T08:30:25.835Z,358
2023-03-26T08:31:25.468Z,371
2023-03-26T08:33:25.656Z,372
2023-03-26T08:34:25.863Z,364
2023-03-26T08:35:26.231Z,366
2023-03-26T08:36:25.028Z,357
2023-03-26T08:38:25.150Z,360
2023-03-26T08:39:25.850Z,364
2023-03-26T08:40:26.329Z,369
2023-03-26T08:41:25.986Z,365
2023-03-26T08:42:25.042Z,364
2023-03-26T08:43:25.398Z,356
2023-03-26T08:44:25.382Z,344
2023-03-26T08:45:25.649Z,349
2023-03-26T08:46:26.905Z,351
2023-03-26T08:47:25.785Z,345
2023-03-26T08:48:24.021Z,354
2023-03-26T08:49:26.681Z,361
2023-03-26T08:50:24.901Z,363
2023-03-26T08:51:26.018Z,365
2023-03-26T08:52:24.954Z,369
2023-03-26T08:53:25.091Z,362
2023-03-26T08:54:25.332Z,356
2023-03-26T08:55:26.340Z,358
2023-03-26T08:56:26.414Z,360
2023-03-26T08:57:25.983Z,354
2023-03-26T08:59:24.542Z,359
2023-03-26T09:00:27.139Z,370
2023-03-26T09:01:25.722Z,376
2023-03-26T09:02:24.810Z,364
2023-03-26T09:03:26.459Z,359
2023-03-26T09:04:25.026Z,369
2023-03-26T09:05:25.476Z,360
2023-03-26T09:06:25.336Z,356
2023-03-26T09:07:25.947Z,357
2023-03-26T09:08:26.008Z,354
2023-03-26T09:09:25.686Z,351
2023-03-26T09:10:25.333Z,363
2023-03-26T09:11:26.014Z,364
2023-03-26T09:12:26.626Z,366
2023-03-26T09:13:25.768Z,370
2023-03-26T09:14:26.220Z,365
2023-03-26T09:15:25.589Z,361
2023-03-26T09:16:27.104Z,360
2023-03-26T09:17:26.025Z,358
2023-03-26T09:19:23.992Z,354
2023-03-26T09:20:28.679Z,350
2023-03-26T09:21:24.026Z,360
2023-03-26T09:23:23.231Z,359
2023-03-26T09:24:23.789Z,352
2023-03-26T09:26:31.463Z,361
2023-03-26T09:27:23.567Z,374
2023-03-26T09:28:31.230Z,359
2023-03-26T09:29:23.976Z,362
2023-03-26T09:30:32.526Z,368
2023-03-26T09:31:23.605Z,357
2023-03-26T09:32:31.523Z,358
2023-03-26T09:33:23.339Z,363
2023-03-26T09:34:37.089Z,360
2023-03-26T09:35:24.254Z,361
2023-03-26T09:36:24.416Z,370
2023-03-26T09:37:23.715Z,357
2023-03-26T09:38:23.595Z,350
2023-03-26T09:39:23.954Z,353
2023-03-26T09:41:23.380Z,347
2023-03-26T09:43:23.450Z,366
2023-03-26T09:44:37.960Z,368
2023-03-26T09:46:23.893Z,365
2023-03-26T09:47:24.035Z,371
2023-03-26T09:48:23.606Z,369
2023-03-26T09:49:23.297Z,357
2023-03-26T09:50:23.752Z,364
2023-03-26T09:51:25.111Z,357
2023-03-26T09:52:23.449Z,351
2023-03-26T09:53:24.050Z,352
2023-03-26T09:54:23.606Z,347
2023-03-26T09:55:24.162Z,351
2023-03-26T09:56:24.124Z,352
2023-03-26T09:57:23.884Z,350
2023-03-26T09:58:23.952Z,349
2023-03-26T09:59:23.749Z,348
2023-03-26T10:00:43.797Z,349
2023-03-26T10:01:23.738Z,348
2023-03-26T10:02:23.942Z,347
2023-03-26T10:03:24.732Z,346
2023-03-26T10:04:23.724Z,358
2023-03-26T10:05:23.688Z,356
2023-03-26T10:06:23.504Z,340
2023-03-26T10:07:23.363Z,345
2023-03-26T10:08:23.565Z,353
2023-03-26T10:09:23.686Z,358
2023-03-26T10:10:23.510Z,354
2023-03-26T10:11:23.671Z,355
2023-03-26T10:12:23.938Z,358
2023-03-26T10:14:24.123Z,361
2023-03-26T10:15:25.075Z,358
2023-03-26T10:16:23.355Z,350
2023-03-26T10:17:23.414Z,359
2023-03-26T10:18:27.121Z,357
2023-03-26T10:19:23.668Z,353
2023-03-26T10:20:23.431Z,356
2023-03-26T10:21:25.652Z,361
2023-03-26T10:22:23.620Z,352
2023-03-26T10:23:23.355Z,343
2023-03-26T10:24:23.511Z,345
2023-03-26T10:25:24.077Z,358
2023-03-26T10:26:24.199Z,360
2023-03-26T10:27:24.830Z,353
2023-03-26T10:28:23.569Z,358
2023-03-26T10:30:24.444Z,358
2023-03-26T10:31:23.510Z,360
2023-03-26T10:32:22.995Z,366
2023-03-26T10:33:25.070Z,368
2023-03-26T10:34:28.919Z,367
2023-03-26T10:35:23.392Z,352
2023-03-26T10:36:24.125Z,361
2023-03-26T10:37:23.724Z,352
2023-03-26T10:38:23.794Z,351
2023-03-26T10:40:23.522Z,348
2023-03-26T10:41:23.459Z,355
2023-03-26T10:43:23.279Z,359
2023-03-26T10:44:24.077Z,350
2023-03-26T10:45:24.168Z,348
2023-03-26T10:46:23.815Z,361
2023-03-26T10:47:23.777Z,362
2023-03-26T10:48:23.359Z,356
2023-03-26T10:49:24.240Z,349
2023-03-26T10:50:23.937Z,354
2023-03-26T10:51:23.392Z,355
2023-03-26T10:52:23.512Z,359
2023-03-26T10:53:23.588Z,363
2023-03-26T10:54:23.720Z,370
2023-03-26T10:55:25.431Z,363
2023-03-26T10:56:24.049Z,361
2023-03-26T10:57:23.988Z,360
2023-03-26T10:58:24.082Z,362
2023-03-26T10:59:23.829Z,371
2023-03-26T11:00:24.041Z,358
2023-03-26T11:01:23.951Z,347
2023-03-26T11:02:30.275Z,346
2023-03-26T11:03:24.364Z,355
2023-03-26T11:04:24.152Z,345
2023-03-26T11:05:24.535Z,353
2023-03-26T11:06:23.066Z,368
2023-03-26T11:07:23.477Z,367
2023-03-26T11:08:31.371Z,363
2023-03-26T11:09:23.497Z,360
2023-03-26T11:10:23.816Z,366
2023-03-26T11:11:23.200Z,354
2023-03-26T11:12:26.552Z,355
2023-03-26T11:13:23.376Z,359
2023-03-26T11:14:33.840Z,356
2023-03-26T11:15:23.763Z,345
2023-03-26T11:16:24.681Z,351
2023-03-26T11:17:39.223Z,347
2023-03-26T11:18:23.696Z,339
2023-03-26T11:19:23.553Z,347
2023-03-26T11:20:23.652Z,344
2023-03-26T11:21:23.456Z,340
2023-03-26T11:22:23.763Z,346
2023-03-26T11:23:23.619Z,352
2023-03-26T11:24:24.200Z,347
2023-03-26T11:25:23.593Z,341
2023-03-26T11:26:23.736Z,344
2023-03-26T11:27:25.193Z,349
2023-03-26T11:28:23.448Z,358
2023-03-26T11:29:32.630Z,359
2023-03-26T11:30:23.402Z,358
2023-03-26T11:31:23.831Z,366
2023-03-26T11:32:23.394Z,363
2023-03-26T11:33:22.878Z,365
2023-03-26T11:34:23.556Z,363
2023-03-26T11:35:39.273Z,355
2023-03-26T11:36:23.505Z,352
2023-03-26T11:37:22.924Z,351
2023-03-26T11:38:22.972Z,352
2023-03-26T11:40:23.477Z,348
2023-03-26T11:41:23.628Z,350
2023-03-26T11:42:23.502Z,354
2023-03-26T11:43:23.451Z,352
2023-03-26T11:44:23.027Z,343
2023-03-26T11:45:28.310Z,349
2023-03-26T11:47:23.309Z,344
2023-03-26T11:48:23.762Z,355
2023-03-26T11:49:23.083Z,347
2023-03-26T11:50:22.800Z,351
2023-03-26T11:51:23.665Z,352
2023-03-26T11:52:23.214Z,348
2023-03-26T11:53:23.104Z,347
2023-03-26T11:54:23.438Z,359
2023-03-26T11:57:23.735Z,355
2023-03-26T11:58:23.328Z,358
2023-03-26T11:59:23.739Z,354
2023-03-26T12:00:24.614Z,356
2023-03-26T12:01:37.025Z,353
2023-03-26T12:02:23.319Z,358
2023-03-26T12:03:23.323Z,360
2023-03-26T12:04:23.286Z,354
2023-03-26T12:05:23.633Z,349
2023-03-26T12:06:23.822Z,342
2023-03-26T12:07:37.394Z,349
2023-03-26T12:09:23.224Z,355
2023-03-26T12:10:23.297Z,348
2023-03-26T12:11:23.046Z,361
2023-03-26T12:12:23.211Z,366
2023-03-26T12:13:42.279Z,361
2023-03-26T12:14:23.626Z,359
2023-03-26T12:15:24.259Z,365
2023-03-26T12:16:23.252Z,359
2023-03-26T12:17:31.522Z,364
2023-03-26T12:18:23.327Z,370
2023-03-26T12:19:23.391Z,368
2023-03-26T12:20:23.032Z,362
2023-03-26T12:21:23.125Z,361
2023-03-26T12:22:24.013Z,358
2023-03-26T12:23:23.204Z,361
2023-03-26T12:24:23.725Z,364
2023-03-26T12:25:23.296Z,359
2023-03-26T12:26:24.159Z,355
2023-03-26T12:29:23.471Z,359
2023-03-26T12:30:23.167Z,365
2023-03-26T12:32:27.423Z,360
2023-03-26T12:33:23.647Z,358
2023-03-26T12:35:23.310Z,356
2023-03-26T12:36:23.088Z,345
2023-03-26T12:37:23.003Z,349
2023-03-26T12:38:22.572Z,361
2023-03-26T12:40:09.379Z,360
2023-03-26T12:40:36.024Z,364
2023-03-26T12:43:19.754Z,360
2023-03-26T12:44:43.804Z,352
2023-03-26T12:44:49.271Z,347
2023-03-26T12:44:55.431Z,350
2023-03-26T12:47:56.314Z,355
2023-03-26T12:47:57.090Z,361
2023-03-26T12:48:53.466Z,353
2023-03-26T12:49:29.113Z,362
2023-03-26T12:50:34.099Z,363
2023-03-26T12:51:22.858Z,360
2023-03-26T12:52:23.494Z,362
2023-03-26T12:53:23.020Z,352
2023-03-26T12:54:22.807Z,358
2023-03-26T12:55:21.843Z,356
2023-03-26T12:56:23.073Z,351
2023-03-26T12:57:23.592Z,361
2023-03-26T12:59:23.123Z,343
2023-03-26T13:01:23.190Z,356
2023-03-26T13:02:23.144Z,361
2023-03-26T13:03:23.332Z,356
2023-03-26T13:04:23.278Z,347
2023-03-26T13:06:22.899Z,357
2023-03-26T13:08:23.628Z,365
2023-03-26T13:09:23.340Z,367
2023-03-26T13:10:22.897Z,356
2023-03-26T13:11:23.096Z,349
2023-03-26T13:12:23.248Z,355
2023-03-26T13:13:22.914Z,351
2023-03-26T13:14:22.879Z,354
2023-03-26T13:15:22.873Z,357
2023-03-26T13:16:23.258Z,361
2023-03-26T13:17:22.663Z,356
2023-03-26T13:18:22.842Z,358
2023-03-26T13:19:23.189Z,356
2023-03-26T13:20:23.491Z,353
2023-03-26T13:21:23.738Z,346
2023-03-26T13:22:22.994Z,351
2023-03-26T13:23:23.173Z,360
2023-03-26T13:24:23.475Z,358
2023-03-26T13:25:23.392Z,362
2023-03-26T13:28:23.121Z,357
2023-03-26T13:29:22.782Z,352
2023-03-26T13:30:23.665Z,351
2023-03-26T13:31:22.829Z,361
2023-03-26T13:32:23.278Z,357
2023-03-26T13:33:23.013Z,355
2023-03-26T13:34:23.142Z,350
2023-03-26T13:35:23.142Z,348
2023-03-26T13:36:24.842Z,343
2023-03-26T13:37:23.781Z,350
2023-03-26T13:38:22.861Z,358
2023-03-26T13:39:23.545Z,355
2023-03-26T13:40:23.500Z,353
2023-03-26T13:41:23.195Z,343
2023-03-26T13:42:23.018Z,341
2023-03-26T13:43:23.606Z,344
2023-03-26T13:45:23.384Z,349
2023-03-26T13:46:23.572Z,350
2023-03-26T13:48:22.677Z,347
2023-03-26T13:49:23.246Z,351
2023-03-26T13:50:23.332Z,356
2023-03-26T13:51:23.328Z,347
2023-03-26T13:52:23.899Z,352
2023-03-26T13:53:22.628Z,355
2023-03-26T13:54:23.456Z,352
2023-03-26T13:55:23.550Z,351
2023-03-26T13:56:24.131Z,357
2023-03-26T13:57:24.146Z,351
2023-03-26T13:58:23.320Z,352
2023-03-26T13:59:24.155Z,348
2023-03-26T14:00:24.355Z,350
2023-03-26T14:01:23.609Z,355
2023-03-26T14:02:23.764Z,348
2023-03-26T14:03:23.286Z,365
2023-03-26T14:05:23.680Z,361
2023-03-26T14:06:23.358Z,347
2023-03-26T14:07:24.053Z,340
2023-03-26T14:08:23.990Z,354
2023-03-26T14:09:23.668Z,361
2023-03-26T14:10:23.156Z,359
2023-03-26T14:11:23.553Z,357
2023-03-26T14:12:23.613Z,359
2023-03-26T14:13:23.017Z,350
2023-03-26T14:14:28.108Z,348
2023-03-26T14:15:23.628Z,362
2023-03-26T14:16:23.252Z,351
2023-03-26T14:17:23.827Z,354
2023-03-26T14:18:24.932Z,348
2023-03-26T14:19:24.708Z,358
2023-03-26T14:20:23.282Z,361
2023-03-26T14:22:23.863Z,351
2023-03-26T14:23:23.395Z,347
2023-03-26T14:24:24.564Z,351
2023-03-26T14:25:23.280Z,347
2023-03-26T14:26:23.496Z,360
2023-03-26T14:27:22.789Z,362
2023-03-26T14:28:37.082Z,351
2023-03-26T14:29:23.817Z,356
2023-03-26T14:30:23.580Z,347
2023-03-26T14:31:22.701Z,350
2023-03-26T14:32:24.519Z,357
2023-03-26T14:33:27.496Z,346
2023-03-26T14:35:24.167Z,355
2023-03-26T14:36:23.424Z,348
2023-03-26T14:37:28.042Z,358
2023-03-26T14:38:23.417Z,370
2023-03-26T14:40:23.637Z,355
2023-03-26T14:41:22.760Z,352
2023-03-26T14:42:42.095Z,357
2023-03-26T14:44:23.636Z,354
2023-03-26T14:46:42.362Z,358
2023-03-26T14:47:24.020Z,359
2023-03-26T14:48:23.177Z,370
2023-03-26T14:49:23.728Z,356
2023-03-26T14:51:24.184Z,339
2023-03-26T14:52:23.744Z,341
2023-03-26T14:54:23.432Z,342